Time;durP1;ratioP1;P1;durP2;ratioP2;P2;SDS_P1;SDS_P2;PMS_P1;PMS_P2;Temp;Humidity;BMP_temperature;BMP_pressure;BME280_temperature;BME280_humidity;BME280_pressure;Samples;Min_cycle;Max_cycle;Signal;HPM_P1;HPM_P2
2021/08/16 00:01:26;;;;;;;2.40;0.38;;;30.70;43.20;;;;;;5109234;28;20550;-59
2021/08/16 00:03:54;;;;;;;0.88;0.38;;;30.70;43.20;;;;;;5108865;28;20068;-59
2021/08/16 00:06:21;;;;;;;0.45;0.20;;;30.70;43.20;;;;;;5110045;28;20043;-59
2021/08/16 00:08:49;;;;;;;0.80;0.43;;;30.70;43.20;;;;;;5119659;28;20606;-59
2021/08/16 00:11:16;;;;;;;0.70;0.20;;;30.70;43.20;;;;;;5123275;28;20036;-57
2021/08/16 00:13:44;;;;;;;1.65;0.85;;;30.60;43.10;;;;;;5120772;28;20047;-59
2021/08/16 00:16:11;;;;;;;1.08;0.50;;;30.60;43.10;;;;;;5099783;28;20063;-59
2021/08/16 00:18:38;;;;;;;1.73;0.10;;;30.60;43.10;;;;;;5112493;28;20047;-57
2021/08/16 00:21:07;;;;;;;0.73;0.45;;;30.60;43.10;;;;;;5108569;28;20055;-60
2021/08/16 00:23:34;;;;;;;0.50;0.10;;;30.60;43.00;;;;;;5108344;28;20063;-59
2021/08/16 00:26:01;;;;;;;0.57;0.20;;;30.60;43.00;;;;;;5105392;28;20035;-59
2021/08/16 00:28:28;;;;;;;0.75;0.32;;;30.60;43.00;;;;;;5108478;28;20044;-60
2021/08/16 00:30:55;;;;;;;1.00;0.50;;;30.60;43.00;;;;;;5108183;28;20058;-59
2021/08/16 00:33:22;;;;;;;2.53;0.50;;;30.60;43.00;;;;;;5109732;28;20031;-60
2021/08/16 00:35:50;;;;;;;2.97;0.22;;;30.50;42.90;;;;;;5121023;28;20031;-59
2021/08/16 00:38:18;;;;;;;3.92;0.20;;;30.50;42.80;;;;;;5106868;28;20039;-59
2021/08/16 00:40:45;;;;;;;1.17;0.10;;;30.50;42.80;;;;;;5106147;28;20043;-60
2021/08/16 00:43:12;;;;;;;2.50;0.30;;;30.60;42.90;;;;;;5106808;28;20051;-59
2021/08/16 00:45:40;;;;;;;0.80;0.20;;;30.50;42.80;;;;;;5107826;28;20059;-59
2021/08/16 00:48:07;;;;;;;1.17;0.30;;;30.50;42.80;;;;;;5107697;28;20774;-59
2021/08/16 00:50:34;;;;;;;0.60;0.20;;;30.50;42.80;;;;;;5107101;28;20061;-60
2021/08/16 00:53:01;;;;;;;1.98;0.20;;;30.50;42.80;;;;;;5104888;28;20102;-59
2021/08/16 00:55:30;;;;;;;1.08;0.68;;;30.50;42.70;;;;;;5118230;28;20138;-58
2021/08/16 00:57:57;;;;;;;0.38;0.30;;;30.50;42.70;;;;;;5098101;28;20055;-58
2021/08/16 01:00:24;;;;;;;0.20;0.10;;;30.50;42.70;;;;;;5094186;28;20572;-59
2021/08/16 01:02:52;;;;;;;1.27;0.10;;;30.50;42.70;;;;;;5094556;28;20107;-59
2021/08/16 01:05:19;;;;;;;2.83;0.28;;;30.40;42.60;;;;;;5092955;28;20839;-59
2021/08/16 01:07:49;;;;;;;2.33;0.47;;;30.40;42.60;;;;;;5091793;28;20566;-59
2021/08/16 01:10:20;;;;;;;1.88;0.47;;;30.40;42.60;;;;;;5094320;28;20044;-59
2021/08/16 01:12:49;;;;;;;1.50;0.68;;;30.40;42.60;;;;;;5094124;28;20040;-59
2021/08/16 01:15:17;;;;;;;0.85;0.20;;;30.40;42.60;;;;;;5075770;28;20043;-58
2021/08/16 01:17:44;;;;;;;1.67;0.20;;;30.40;42.60;;;;;;5089209;28;20058;-60
2021/08/16 01:20:14;;;;;;;2.40;0.10;;;30.40;42.50;;;;;;5092354;28;20050;-59
2021/08/16 01:22:47;;;;;;;0.30;0.20;;;30.40;42.50;;;;;;5091937;28;20054;-59
2021/08/16 01:25:14;;;;;;;1.85;0.10;;;30.40;42.50;;;;;;5093585;28;20058;-59
2021/08/16 01:27:43;;;;;;;1.13;0.20;;;30.30;42.50;;;;;;5093675;28;20063;-60
2021/08/16 01:30:13;;;;;;;0.57;0.20;;;30.40;42.50;;;;;;5093059;28;20124;-59
2021/08/16 01:32:41;;;;;;;1.45;0.30;;;30.40;42.50;;;;;;5107929;28;20035;-59
2021/08/16 01:35:09;;;;;;;0.38;0.10;;;30.30;42.40;;;;;;5091572;28;20132;-59
2021/08/16 01:37:36;;;;;;;0.90;0.30;;;30.30;42.50;;;;;;5104765;28;20067;-59
2021/08/16 01:40:10;;;;;;;2.08;0.73;;;30.30;42.40;;;;;;5099978;28;20036;-60
2021/08/16 01:42:37;;;;;;;1.65;0.30;;;30.30;42.40;;;;;;5103681;28;20130;-60
2021/08/16 01:45:07;;;;;;;1.58;0.28;;;30.30;42.40;;;;;;5107966;28;20159;-60
2021/08/16 01:47:34;;;;;;;3.97;0.43;;;30.30;42.40;;;;;;5096386;28;20040;-60
2021/08/16 01:50:01;;;;;;;2.38;0.10;;;30.30;42.40;;;;;;5090186;28;20060;-60
2021/08/16 01:52:28;;;;;;;1.27;0.50;;;30.20;42.30;;;;;;5090474;28;20068;-60
2021/08/16 01:54:55;;;;;;;2.78;0.20;;;30.20;42.30;;;;;;5089444;28;20126;-60
2021/08/16 01:57:24;;;;;;;1.60;0.40;;;30.20;42.30;;;;;;5092450;28;20474;-60
2021/08/16 01:59:51;;;;;;;1.30;0.20;;;30.20;42.30;;;;;;5092391;28;20124;-60
2021/08/16 02:02:19;;;;;;;1.38;0.10;;;30.20;42.20;;;;;;5091819;28;20110;-60
2021/08/16 02:04:47;;;;;;;0.30;0.20;;;30.20;42.20;;;;;;5090933;28;20115;-60
2021/08/16 02:07:14;;;;;;;2.03;0.82;;;30.20;42.30;;;;;;5092674;28;20058;-60
2021/08/16 02:09:42;;;;;;;2.85;0.20;;;30.20;42.90;;;;;;5091612;28;20040;-59
2021/08/16 02:12:10;;;;;;;4.57;0.22;;;30.20;42.90;;;;;;5092949;28;20123;-59
2021/08/16 02:14:37;;;;;;;1.95;0.40;;;30.20;42.20;;;;;;5092893;28;20035;-60
2021/08/16 02:17:04;;;;;;;1.85;0.20;;;30.20;42.20;;;;;;5090364;28;20046;-59
2021/08/16 02:19:33;;;;;;;1.05;0.20;;;30.20;42.20;;;;;;5092401;28;20079;-60
2021/08/16 02:22:00;;;;;;;0.80;0.10;;;30.20;42.20;;;;;;5093067;28;20032;-60
2021/08/16 02:24:27;;;;;;;1.95;0.57;;;30.10;42.10;;;;;;5092526;28;20032;-60
2021/08/16 02:26:54;;;;;;;1.52;0.45;;;30.10;42.10;;;;;;5092909;28;20060;-60
2021/08/16 02:29:22;;;;;;;1.33;0.10;;;30.10;42.10;;;;;;5091555;28;20033;-60
2021/08/16 02:31:49;;;;;;;1.90;0.22;;;30.20;42.10;;;;;;5090359;28;20055;-60
2021/08/16 02:34:16;;;;;;;1.35;0.30;;;30.10;42.00;;;;;;5092654;28;20044;-59
2021/08/16 02:36:45;;;;;;;2.35;0.30;;;30.20;42.10;;;;;;5092395;28;20456;-59
2021/08/16 02:39:12;;;;;;;0.75;0.43;;;30.10;42.10;;;;;;5091211;28;20057;-60
2021/08/16 02:41:39;;;;;;;1.50;0.25;;;30.10;42.10;;;;;;5091268;28;20119;-60
2021/08/16 02:44:06;;;;;;;0.30;0.10;;;30.10;42.10;;;;;;5106576;28;20036;-60
2021/08/16 02:46:34;;;;;;;0.60;0.13;;;30.10;42.00;;;;;;5091684;28;20093;-59
2021/08/16 02:49:01;;;;;;;0.65;0.20;;;30.10;42.00;;;;;;5092728;28;20044;-59
2021/08/16 02:51:28;;;;;;;1.23;0.40;;;30.10;42.00;;;;;;5092363;28;20040;-59
2021/08/16 02:53:57;;;;;;;3.97;0.20;;;30.10;42.00;;;;;;5090438;28;20052;-59
2021/08/16 02:56:24;;;;;;;0.40;0.30;;;30.10;42.00;;;;;;5091239;28;20429;-60
2021/08/16 02:58:51;;;;;;;3.17;0.28;;;30.10;42.00;;;;;;5089318;28;20040;-59
2021/08/16 03:01:18;;;;;;;2.83;0.30;;;30.00;42.00;;;;;;5092057;28;20047;-60
2021/08/16 03:03:45;;;;;;;1.92;0.10;;;30.00;41.90;;;;;;5092315;28;20040;-60
2021/08/16 03:06:13;;;;;;;1.17;0.10;;;30.00;42.00;;;;;;5091827;28;20048;-60
2021/08/16 03:08:40;;;;;;;1.85;0.30;;;30.00;42.00;;;;;;5091987;28;20039;-59
2021/08/16 03:11:09;;;;;;;1.58;0.28;;;30.00;42.00;;;;;;5089865;28;20120;-60
2021/08/16 03:13:36;;;;;;;2.28;0.80;;;30.00;42.00;;;;;;5093733;28;20043;-60
2021/08/16 03:16:04;;;;;;;0.70;0.20;;;30.00;42.00;;;;;;5091726;28;20582;-60
2021/08/16 03:18:31;;;;;;;0.93;0.22;;;30.00;42.00;;;;;;5091353;28;20501;-62
2021/08/16 03:20:58;;;;;;;1.65;0.30;;;30.00;42.00;;;;;;5091798;28;20094;-60
2021/08/16 03:23:27;;;;;;;1.52;0.20;;;30.00;42.00;;;;;;5090903;28;20047;-60
2021/08/16 03:25:55;;;;;;;1.20;0.20;;;30.00;42.00;;;;;;5105094;28;20055;-59
2021/08/16 03:28:23;;;;;;;0.95;0.10;;;30.00;42.00;;;;;;5088311;28;20040;-60
2021/08/16 03:30:50;;;;;;;5.28;0.68;;;29.90;41.90;;;;;;5087506;28;20039;-60
2021/08/16 03:33:17;;;;;;;2.17;0.85;;;30.00;42.00;;;;;;5095813;28;20468;-60
2021/08/16 03:35:44;;;;;;;2.90;0.30;;;30.00;42.00;;;;;;5091391;28;20066;-58
2021/08/16 03:38:12;;;;;;;0.57;0.20;;;29.90;42.00;;;;;;5089090;28;20130;-58
2021/08/16 03:40:40;;;;;;;1.65;0.32;;;29.90;42.00;;;;;;5090427;28;20132;-61
2021/08/16 03:43:07;;;;;;;0.88;0.20;;;29.90;42.00;;;;;;5091740;28;20043;-59
2021/08/16 03:45:36;;;;;;;1.10;0.40;;;29.90;42.00;;;;;;5099516;28;20058;-60
2021/08/16 03:48:03;;;;;;;0.85;0.35;;;29.90;42.00;;;;;;5101961;28;20032;-61
2021/08/16 03:50:30;;;;;;;0.40;0.30;;;29.90;42.10;;;;;;5091164;28;20075;-59
2021/08/16 03:52:57;;;;;;;1.52;0.28;;;29.90;42.00;;;;;;5088284;28;20123;-59
2021/08/16 03:55:24;;;;;;;1.20;0.25;;;29.90;42.10;;;;;;5087880;28;20093;-60
2021/08/16 03:57:52;;;;;;;1.77;0.17;;;29.90;42.10;;;;;;5091307;28;20044;-60
2021/08/16 04:00:19;;;;;;;1.95;0.50;;;29.90;42.10;;;;;;5090836;28;20107;-60
2021/08/16 04:02:48;;;;;;;2.33;0.17;;;29.90;42.10;;;;;;5091319;28;20051;-61
2021/08/16 04:05:15;;;;;;;1.38;0.20;;;29.90;42.10;;;;;;5089297;28;20537;-59
2021/08/16 04:07:44;;;;;;;0.52;0.28;;;29.90;42.70;;;;;;5089938;28;20055;-60
2021/08/16 04:10:12;;;;;;;1.40;0.30;;;29.90;42.10;;;;;;5091264;28;20541;-60
2021/08/16 04:12:39;;;;;;;2.28;0.40;;;29.90;42.20;;;;;;5091176;28;20075;-59
2021/08/16 04:15:10;;;;;;;2.38;0.20;;;29.90;42.20;;;;;;5091397;28;20059;-59
2021/08/16 04:17:38;;;;;;;3.92;0.22;;;29.90;42.20;;;;;;5089827;28;20076;-58
2021/08/16 04:20:08;;;;;;;1.95;0.20;;;29.80;42.10;;;;;;5090867;28;20047;-59
2021/08/16 04:22:35;;;;;;;2.70;0.50;;;29.80;42.10;;;;;;5090483;28;20040;-59
2021/08/16 04:25:03;;;;;;;1.98;0.30;;;29.90;42.20;;;;;;5090954;28;20048;-60
2021/08/16 04:27:30;;;;;;;1.38;0.20;;;29.80;42.80;;;;;;5090843;28;20055;-60
2021/08/16 04:29:57;;;;;;;1.77;0.30;;;29.80;42.20;;;;;;5090626;28;20040;-59
2021/08/16 04:32:24;;;;;;;1.38;0.30;;;29.80;42.20;;;;;;5074039;28;20043;-60
2021/08/16 04:34:51;;;;;;;1.17;0.60;;;29.80;42.20;;;;;;5092179;28;20514;-59
2021/08/16 04:37:20;;;;;;;1.13;0.20;;;29.80;42.20;;;;;;5094873;28;20048;-59
2021/08/16 04:39:47;;;;;;;1.55;0.20;;;29.80;42.20;;;;;;5094660;28;20063;-59
2021/08/16 04:42:14;;;;;;;0.73;0.25;;;29.80;42.20;;;;;;5093876;28;20051;-60
2021/08/16 04:44:41;;;;;;;2.97;0.85;;;29.70;42.10;;;;;;5108603;28;20059;-60
2021/08/16 04:47:08;;;;;;;1.42;0.20;;;29.80;42.20;;;;;;5092368;28;20060;-59
2021/08/16 04:49:36;;;;;;;0.75;0.25;;;29.80;42.20;;;;;;5105092;28;20078;-60
2021/08/16 04:52:03;;;;;;;1.85;0.20;;;29.80;42.20;;;;;;5096851;28;20071;-59
2021/08/16 04:54:32;;;;;;;1.00;0.90;;;29.70;42.20;;;;;;5094908;28;20044;-60
2021/08/16 04:56:59;;;;;;;1.40;0.82;;;29.80;42.20;;;;;;5094286;28;20044;-60
2021/08/16 04:59:26;;;;;;;1.02;0.22;;;29.70;42.10;;;;;;5094211;28;20040;-59
2021/08/16 05:01:53;;;;;;;5.80;0.35;;;29.70;42.20;;;;;;5092061;28;20044;-60
2021/08/16 05:04:20;;;;;;;1.10;1.00;;;29.70;42.20;;;;;;5089931;28;20047;-59
2021/08/16 05:06:47;;;;;;;1.67;0.10;;;29.70;42.20;;;;;;5094652;28;20470;-60
2021/08/16 05:09:14;;;;;;;0.52;0.10;;;29.70;42.20;;;;;;5094171;28;20042;-59
2021/08/16 05:11:43;;;;;;;1.65;0.10;;;29.70;42.20;;;;;;5094346;28;20445;-60
2021/08/16 05:14:10;;;;;;;1.17;0.22;;;29.70;42.10;;;;;;5091310;28;20570;-60
2021/08/16 05:16:37;;;;;;;0.30;0.10;;;29.70;42.20;;;;;;5091655;28;20052;-59
2021/08/16 05:19:04;;;;;;;0.25;0.10;;;29.70;42.20;;;;;;5093522;28;20046;-60
2021/08/16 05:21:32;;;;;;;2.08;0.10;;;29.70;42.20;;;;;;5093365;28;20088;-59
2021/08/16 05:23:59;;;;;;;0.50;0.20;;;29.70;42.20;;;;;;5091725;28;20065;-59
2021/08/16 05:26:26;;;;;;;3.20;0.22;;;29.60;42.10;;;;;;5108736;28;20122;-60
2021/08/16 05:28:55;;;;;;;3.25;0.10;;;29.70;42.20;;;;;;5091285;28;20040;-60
2021/08/16 05:31:22;;;;;;;3.75;0.10;;;29.60;42.10;;;;;;5093640;28;20757;-59
2021/08/16 05:33:49;;;;;;;1.85;0.45;;;29.60;42.10;;;;;;5098479;28;20171;-60
2021/08/16 05:36:16;;;;;;;2.55;0.20;;;29.70;42.20;;;;;;5103423;28;20837;-60
2021/08/16 05:38:45;;;;;;;3.53;0.10;;;29.70;42.20;;;;;;5107798;28;20039;-59
2021/08/16 05:41:12;;;;;;;5.40;0.20;;;29.60;42.10;;;;;;5091008;28;20094;-59
2021/08/16 05:43:39;;;;;;;9.82;0.20;;;29.60;42.10;;;;;;5102698;28;20047;-60
2021/08/16 05:46:08;;;;;;;3.03;0.55;;;29.60;42.10;;;;;;5095923;28;20086;-59
2021/08/16 05:48:35;;;;;;;3.63;0.22;;;29.60;42.10;;;;;;5091749;28;20117;-60
2021/08/16 05:51:02;;;;;;;1.48;0.43;;;29.60;42.10;;;;;;5097996;28;20141;-60
2021/08/16 05:53:30;;;;;;;1.85;0.28;;;29.60;42.10;;;;;;5090588;28;20040;-60
2021/08/16 05:55:57;;;;;;;3.30;0.57;;;29.60;42.10;;;;;;5106513;28;20047;-63
2021/08/16 05:58:24;;;;;;;4.50;1.05;;;29.60;42.10;;;;;;5092958;28;20124;-60
2021/08/16 06:00:51;;;;;;;1.90;0.17;;;29.60;42.10;;;;;;5092113;28;20466;-59
2021/08/16 06:03:19;;;;;;;2.78;0.10;;;29.60;42.10;;;;;;5092695;28;20040;-60
2021/08/16 06:05:46;;;;;;;2.10;0.20;;;29.60;42.10;;;;;;5092966;28;20138;-59
2021/08/16 06:08:13;;;;;;;1.90;0.10;;;29.60;42.10;;;;;;5089406;28;20047;-59
2021/08/16 06:10:40;;;;;;;4.10;0.30;;;29.60;42.20;;;;;;5108663;28;20047;-59
2021/08/16 06:13:07;;;;;;;6.15;0.17;;;29.60;42.20;;;;;;5108937;28;20554;-59
2021/08/16 06:15:34;;;;;;;0.98;0.20;;;29.60;42.10;;;;;;5098922;28;20121;-60
2021/08/16 06:18:02;;;;;;;3.20;0.20;;;29.60;42.20;;;;;;5091762;28;20036;-59
2021/08/16 06:20:30;;;;;;;1.80;0.05;;;29.60;42.10;;;;;;5093031;28;20315;-59
2021/08/16 06:22:58;;;;;;;5.53;0.10;;;29.60;42.10;;;;;;5089451;28;20101;-60
2021/08/16 06:25:25;;;;;;;1.52;0.10;;;29.60;42.10;;;;;;5090543;28;20131;-59
2021/08/16 06:27:52;;;;;;;0.85;0.45;;;29.60;42.10;;;;;;5092103;28;20039;-60
2021/08/16 06:30:19;;;;;;;1.05;0.10;;;29.60;42.20;;;;;;5091975;28;20036;-60
2021/08/16 06:32:46;;;;;;;3.38;0.40;;;29.50;42.10;;;;;;5091139;28;20722;-60
2021/08/16 06:35:15;;;;;;;0.73;0.20;;;29.50;42.10;;;;;;5091911;28;20110;-59
2021/08/16 06:37:45;;;;;;;0.60;0.10;;;29.60;42.20;;;;;;5090981;28;20408;-60
2021/08/16 06:40:13;;;;;;;0.10;0.10;;;29.60;42.20;;;;;;5092294;28;20040;-59
2021/08/16 06:42:40;;;;;;;2.17;0.10;;;29.60;42.20;;;;;;5091308;28;20118;-60
2021/08/16 06:45:08;;;;;;;1.30;0.50;;;29.60;42.20;;;;;;5091540;28;20109;-60
2021/08/16 06:47:35;;;;;;;1.38;0.10;;;29.50;42.10;;;;;;5093558;28;20042;-60
2021/08/16 06:50:02;;;;;;;2.55;0.10;;;29.60;42.20;;;;;;5092306;28;20063;-59
2021/08/16 06:52:30;;;;;;;0.20;0.10;;;29.60;42.20;;;;;;5092416;28;20055;-58
2021/08/16 06:54:58;;;;;;;0.50;0.10;;;29.60;42.20;;;;;;5091111;28;20044;-59
2021/08/16 06:57:27;;;;;;;2.35;0.65;;;29.60;42.20;;;;;;5091928;28;20071;-60
2021/08/16 06:59:54;;;;;;;1.77;0.98;;;29.60;42.20;;;;;;5091655;28;20470;-58
2021/08/16 07:02:22;;;;;;;4.30;1.75;;;29.50;42.10;;;;;;5089683;28;20047;-60
2021/08/16 07:04:49;;;;;;;4.43;0.73;;;29.50;42.20;;;;;;5104280;28;20206;-59
2021/08/16 07:07:17;;;;;;;3.20;0.98;;;29.60;42.30;;;;;;5092035;28;20127;-60
2021/08/16 07:09:44;;;;;;;2.00;0.68;;;29.60;42.30;;;;;;5091662;28;20123;-59
2021/08/16 07:12:12;;;;;;;2.28;1.02;;;29.60;42.30;;;;;;5091736;28;20040;-60
2021/08/16 07:14:39;;;;;;;2.28;0.82;;;29.60;42.40;;;;;;5091918;28;20689;-59
2021/08/16 07:17:07;;;;;;;3.90;1.20;;;29.50;42.20;;;;;;5088648;28;20511;-60
2021/08/16 07:19:34;;;;;;;0.45;0.30;;;29.50;42.30;;;;;;5095623;28;20047;-60
2021/08/16 07:22:01;;;;;;;0.20;0.20;;;29.50;42.30;;;;;;5090794;28;20044;-59
2021/08/16 07:24:28;;;;;;;1.65;0.30;;;29.50;42.30;;;;;;5095761;28;20811;-60
2021/08/16 07:26:55;;;;;;;2.08;0.45;;;29.50;42.30;;;;;;5091420;28;20466;-59
2021/08/16 07:29:25;;;;;;;0.52;0.30;;;29.60;42.40;;;;;;5090561;28;20874;-60
2021/08/16 07:31:52;;;;;;;1.77;0.30;;;29.60;42.40;;;;;;5093612;28;20032;-59
2021/08/16 07:34:19;;;;;;;0.98;0.20;;;29.60;42.40;;;;;;5091610;28;20711;-59
2021/08/16 07:36:47;;;;;;;2.70;0.30;;;29.50;42.30;;;;;;5100671;28;20043;-60
2021/08/16 07:39:14;;;;;;;2.00;0.20;;;29.50;42.30;;;;;;5096551;28;20071;-59
2021/08/16 07:41:41;;;;;;;5.63;0.65;;;29.50;42.30;;;;;;5077002;28;20122;-59
2021/08/16 07:44:08;;;;;;;1.75;0.20;;;29.50;42.30;;;;;;5091378;28;20055;-59
2021/08/16 07:46:37;;;;;;;3.65;0.20;;;29.50;42.30;;;;;;5090769;28;20059;-59
2021/08/16 07:49:04;;;;;;;1.90;0.40;;;29.50;42.30;;;;;;5091251;28;20139;-60
2021/08/16 07:51:31;;;;;;;1.20;0.20;;;29.50;42.30;;;;;;5091271;28;20089;-60
2021/08/16 07:53:58;;;;;;;1.65;0.30;;;29.50;42.30;;;;;;5091764;28;20051;-59
2021/08/16 07:56:25;;;;;;;5.47;0.10;;;29.50;42.30;;;;;;5087216;28;20043;-60
2021/08/16 07:58:52;;;;;;;1.65;0.20;;;29.50;42.30;;;;;;5088577;28;20048;-60
2021/08/16 08:01:20;;;;;;;0.65;0.10;;;29.60;42.50;;;;;;5103303;28;20039;-60
2021/08/16 08:03:48;;;;;;;2.40;0.20;;;29.50;42.40;;;;;;5095959;28;20044;-61
2021/08/16 08:06:15;;;;;;;2.47;0.20;;;29.50;42.40;;;;;;5091380;28;20036;-61
2021/08/16 08:08:42;;;;;;;0.63;0.55;;;29.60;42.50;;;;;;5095609;28;20043;-61
2021/08/16 08:11:10;;;;;;;0.88;0.10;;;29.50;42.40;;;;;;5094123;28;20051;-59
2021/08/16 08:13:38;;;;;;;2.13;0.17;;;29.50;42.40;;;;;;5076246;28;20052;-61
2021/08/16 08:16:07;;;;;;;1.42;0.15;;;29.50;42.40;;;;;;5095299;28;20584;-60
2021/08/16 08:18:34;;;;;;;3.03;0.10;;;29.60;42.50;;;;;;5095215;28;20135;-61
2021/08/16 08:21:03;;;;;;;1.10;0.10;;;29.60;42.50;;;;;;5094852;28;20404;-60
2021/08/16 08:23:30;;;;;;;2.10;0.32;;;29.60;42.50;;;;;;5095316;28;20290;-61
2021/08/16 08:25:57;;;;;;;2.10;0.20;;;29.60;42.50;;;;;;5092249;28;20044;-61
2021/08/16 08:28:24;;;;;;;0.40;0.20;;;29.60;42.50;;;;;;5091796;28;20072;-61
2021/08/16 08:30:51;;;;;;;2.75;0.13;;;29.60;42.50;;;;;;5091315;28;20127;-60
2021/08/16 08:33:19;;;;;;;0.55;0.10;;;29.60;42.50;;;;;;5093965;28;20036;-59
2021/08/16 08:35:47;;;;;;;0.95;0.10;;;29.60;42.60;;;;;;5095242;28;20420;-63
2021/08/16 08:38:16;;;;;;;0.35;0.10;;;29.60;42.60;;;;;;5092993;28;20849;-61
2021/08/16 08:40:44;;;;;;;2.28;0.68;;;29.60;42.60;;;;;;5093422;28;20057;-59
2021/08/16 08:43:13;;;;;;;1.90;0.40;;;29.60;42.60;;;;;;5095497;28;20580;-60
2021/08/16 08:45:42;;;;;;;0.47;0.10;;;29.60;42.60;;;;;;5093641;28;20529;-60
2021/08/16 08:48:09;;;;;;;0.20;0.13;;;29.60;42.60;;;;;;5093687;28;20143;-61
2021/08/16 08:50:39;;;;;;;0.38;0.15;;;29.60;42.60;;;;;;5094739;28;20133;-60
2021/08/16 08:53:06;;;;;;;0.95;0.10;;;29.60;42.60;;;;;;5091789;28;20040;-60
2021/08/16 08:55:35;;;;;;;0.65;0.08;;;29.60;42.60;;;;;;5094223;28;20525;-60
2021/08/16 08:58:02;;;;;;;0.35;0.10;;;29.60;42.60;;;;;;5093531;28;20083;-61
2021/08/16 09:00:30;;;;;;;0.17;0.10;;;29.60;42.60;;;;;;5096587;28;20032;-61
2021/08/16 09:02:58;;;;;;;0.35;0.32;;;29.60;42.60;;;;;;5106701;28;20119;-60
2021/08/16 09:05:26;;;;;;;2.05;0.10;;;29.60;42.60;;;;;;5093824;28;20043;-59
2021/08/16 09:07:55;;;;;;;1.00;0.00;;;29.60;42.60;;;;;;5091771;28;20055;-61
2021/08/16 09:10:24;;;;;;;0.50;0.10;;;29.60;42.60;;;;;;5093251;28;20126;-60
2021/08/16 09:12:57;;;;;;;0.90;0.00;;;29.60;42.60;;;;;;5093999;28;20143;-60
2021/08/16 09:15:25;;;;;;;0.30;0.30;;;29.60;42.70;;;;;;5094056;28;20040;-60
2021/08/16 09:17:53;;;;;;;0.30;0.10;;;29.60;42.70;;;;;;5094025;28;20074;-60
2021/08/16 09:20:22;;;;;;;0.60;0.60;;;29.60;42.60;;;;;;5092912;28;20104;-60
2021/08/16 09:22:58;;;;;;;1.70;1.50;;;29.70;43.40;;;;;;5091979;28;20159;-60
2021/08/16 09:25:26;;;;;;;3.45;3.15;;;29.60;42.60;;;;;;5094413;28;20063;-59
2021/08/16 09:27:55;;;;;;;2.83;2.63;;;29.70;42.70;;;;;;5093428;28;20040;-61
2021/08/16 09:30:31;;;;;;;2.83;2.60;;;29.60;42.70;;;;;;5097690;28;20032;-60
2021/08/16 09:32:58;;;;;;;2.97;1.88;;;29.70;42.70;;;;;;5093699;28;20149;-60
2021/08/16 09:35:25;;;;;;;2.63;1.83;;;29.60;42.70;;;;;;5093231;28;20047;-60
2021/08/16 09:37:56;;;;;;;1.58;1.48;;;29.70;42.80;;;;;;5091196;28;20139;-59
2021/08/16 09:40:24;;;;;;;2.22;2.13;;;29.70;42.80;;;;;;5090151;28;20131;-61
2021/08/16 09:42:55;;;;;;;1.33;1.27;;;29.60;42.70;;;;;;5097865;28;20534;-60
2021/08/16 09:45:29;;;;;;;4.53;1.38;;;29.70;42.80;;;;;;5101841;28;20047;-60
2021/08/16 09:47:58;;;;;;;1.02;0.45;;;29.70;42.80;;;;;;5093642;28;20059;-60
2021/08/16 09:50:37;;;;;;;1.05;0.80;;;29.70;42.80;;;;;;5090280;28;20563;-60
2021/08/16 09:53:07;;;;;;;2.00;0.90;;;29.70;42.80;;;;;;5090731;28;20127;-58
2021/08/16 09:55:38;;;;;;;0.52;0.52;;;29.70;42.80;;;;;;5092988;28;20124;-61
2021/08/16 09:58:09;;;;;;;1.15;0.68;;;29.70;42.90;;;;;;5100487;28;20039;-60
2021/08/16 10:00:38;;;;;;;0.68;0.50;;;29.70;42.90;;;;;;5102477;28;20063;-61
2021/08/16 10:03:07;;;;;;;2.15;0.43;;;29.70;42.90;;;;;;5104321;28;20072;-60
2021/08/16 10:05:38;;;;;;;0.65;0.52;;;29.70;42.80;;;;;;5090519;28;20071;-61
2021/08/16 10:08:08;;;;;;;1.15;0.93;;;29.70;42.90;;;;;;5092682;28;20051;-61
2021/08/16 10:10:37;;;;;;;2.55;0.82;;;29.80;42.90;;;;;;5092405;28;20043;-59
2021/08/16 10:13:05;;;;;;;4.05;0.80;;;29.80;42.90;;;;;;5093092;28;20082;-59
2021/08/16 10:15:38;;;;;;;5.47;1.20;;;29.80;42.90;;;;;;5093534;28;20052;-60
2021/08/16 10:18:11;;;;;;;4.43;1.35;;;29.80;42.90;;;;;;5092630;28;20028;-60
2021/08/16 10:20:39;;;;;;;4.07;1.38;;;29.80;42.90;;;;;;5092917;28;20038;-60
2021/08/16 10:23:17;;;;;;;2.08;1.15;;;29.80;42.90;;;;;;5090371;28;20073;-60
2021/08/16 10:25:46;;;;;;;2.92;0.82;;;29.80;43.00;;;;;;5091320;28;20068;-61
2021/08/16 10:28:25;;;;;;;2.00;0.55;;;29.80;43.00;;;;;;5091597;28;20048;-60
2021/08/16 10:30:53;;;;;;;0.73;0.73;;;29.80;43.00;;;;;;5092006;28;20494;-60
2021/08/16 10:33:20;;;;;;;1.20;0.55;;;29.80;43.10;;;;;;5092355;28;20036;-59
2021/08/16 10:35:48;;;;;;;1.60;0.90;;;29.70;43.00;;;;;;5092334;28;20040;-60
2021/08/16 10:38:19;;;;;;;2.97;0.80;;;29.80;43.10;;;;;;5091289;28;20050;-60
2021/08/16 10:40:51;;;;;;;0.65;0.50;;;29.80;43.10;;;;;;5090717;28;20055;-63
2021/08/16 10:43:19;;;;;;;2.05;0.38;;;29.80;43.20;;;;;;5091083;28;20055;-60
2021/08/16 10:45:48;;;;;;;0.77;0.77;;;29.80;43.20;;;;;;5103154;28;20040;-60
2021/08/16 10:48:24;;;;;;;0.98;0.40;;;29.80;43.20;;;;;;5101478;28;20043;-60
2021/08/16 10:51:04;;;;;;;0.38;0.38;;;29.80;43.10;;;;;;5092745;28;20486;-60
2021/08/16 10:53:33;;;;;;;0.80;0.25;;;29.80;43.10;;;;;;5088798;28;20040;-61
2021/08/16 10:56:01;;;;;;;0.95;0.20;;;29.80;43.20;;;;;;5089127;28;20582;-60
2021/08/16 10:58:28;;;;;;;0.20;0.20;;;29.80;43.20;;;;;;5102728;28;20079;-61
2021/08/16 11:00:56;;;;;;;0.88;0.40;;;29.80;43.10;;;;;;5101850;28;20584;-58
2021/08/16 11:03:25;;;;;;;1.08;0.28;;;29.80;43.10;;;;;;5100403;28;20046;-60
2021/08/16 11:05:52;;;;;;;0.73;0.35;;;29.90;43.20;;;;;;5089851;28;20047;-61
2021/08/16 11:08:30;;;;;;;0.75;0.20;;;29.90;43.20;;;;;;5072254;28;20118;-61
2021/08/16 11:11:06;;;;;;;0.28;0.20;;;29.90;43.10;;;;;;5105283;28;20043;-61
2021/08/16 11:13:33;;;;;;;0.70;0.20;;;29.90;43.20;;;;;;5106787;28;20039;-61
2021/08/16 11:16:07;;;;;;;1.40;0.10;;;29.90;43.10;;;;;;5095010;28;20079;-61
2021/08/16 11:18:36;;;;;;;1.98;0.20;;;29.90;43.10;;;;;;5092295;28;20048;-60
2021/08/16 11:21:06;;;;;;;5.28;0.40;;;29.90;43.10;;;;;;5090460;28;20055;-61
2021/08/16 11:23:35;;;;;;;0.57;0.35;;;29.90;43.10;;;;;;5089802;28;20047;-61
2021/08/16 11:26:03;;;;;;;2.40;0.20;;;29.90;43.20;;;;;;5092446;28;20032;-60
2021/08/16 11:28:32;;;;;;;0.57;0.20;;;29.90;43.10;;;;;;5091968;28;20048;-60
2021/08/16 11:31:05;;;;;;;3.53;0.43;;;29.90;43.20;;;;;;5091832;28;20809;-61
2021/08/16 11:33:32;;;;;;;3.15;0.20;;;29.90;43.10;;;;;;5091778;28;20066;-61
2021/08/16 11:36:06;;;;;;;1.60;0.20;;;29.90;43.10;;;;;;5091392;28;20048;-61
2021/08/16 11:38:33;;;;;;;0.85;0.20;;;30.00;43.10;;;;;;5091942;28;20043;-61
2021/08/16 11:41:08;;;;;;;0.40;0.22;;;29.90;43.00;;;;;;5094868;28;20619;-61
2021/08/16 11:43:35;;;;;;;0.30;0.20;;;29.90;43.00;;;;;;5091042;28;20044;-60
2021/08/16 11:46:13;;;;;;;0.30;0.20;;;29.90;42.90;;;;;;5091611;28;20054;-61
2021/08/16 11:48:44;;;;;;;1.02;0.30;;;30.00;42.90;;;;;;5091361;28;20110;-60
2021/08/16 11:51:14;;;;;;;0.63;0.25;;;29.90;42.90;;;;;;5089160;28;20051;-59
2021/08/16 11:53:43;;;;;;;0.95;0.30;;;29.90;42.90;;;;;;5089553;28;20048;-61
2021/08/16 11:56:10;;;;;;;0.30;0.20;;;30.00;42.90;;;;;;5108062;28;20046;-59
2021/08/16 11:58:57;;;;;;;2.22;0.80;;;29.90;42.70;;;;;;5093311;28;20047;-61
2021/08/16 12:01:25;;;;;;;1.25;1.02;;;29.90;42.70;;;;;;5087977;28;20056;-61
2021/08/16 12:03:53;;;;;;;1.85;1.10;;;29.90;42.70;;;;;;5087128;28;20155;-58
2021/08/16 12:06:21;;;;;;;1.45;1.35;;;29.90;42.60;;;;;;5094894;28;20565;-59
2021/08/16 12:08:51;;;;;;;1.65;1.30;;;29.90;42.60;;;;;;5103597;28;20096;-61
2021/08/16 12:11:18;;;;;;;3.38;2.00;;;29.90;42.60;;;;;;5104996;28;20880;-61
2021/08/16 12:13:59;;;;;;;2.03;1.75;;;29.90;42.50;;;;;;5108389;28;20515;-60
2021/08/16 12:16:30;;;;;;;3.50;1.98;;;29.90;42.50;;;;;;5092776;28;20083;-61
2021/08/16 12:18:58;;;;;;;2.40;2.10;;;29.90;42.40;;;;;;5090941;28;20535;-61
2021/08/16 12:21:27;;;;;;;2.15;1.88;;;29.90;42.30;;;;;;5090834;28;20036;-60
2021/08/16 12:24:07;;;;;;;;;;;30.00;42.40;;;;;;5078435;28;20449;-60
2021/08/16 12:26:59;;;;;;;;;;;29.90;42.30;;;;;;5081038;28;20467;-60
2021/08/16 12:29:43;;;;;;;3.08;2.45;;;29.90;42.40;;;;;;5103041;27;20410;-59
2021/08/16 12:32:28;;;;;;;2.60;1.75;;;29.90;42.30;;;;;;5080907;27;20911;-59
2021/08/16 12:35:14;;;;;;;;;;;30.00;42.20;;;;;;5085190;28;20802;-60
2021/08/16 12:38:00;;;;;;;;;;;30.00;42.20;;;;;;5081620;27;20394;-60
2021/08/16 12:40:39;;;;;;;;;;;30.00;42.30;;;;;;5073175;27;20447;-60
2021/08/16 12:43:22;;;;;;;3.08;2.38;;;29.90;42.20;;;;;;5058288;28;21010;-59
2021/08/16 12:46:02;;;;;;;;;;;30.00;42.30;;;;;;5070645;27;20445;-60
2021/08/16 12:48:45;;;;;;;;;;;30.00;42.20;;;;;;5073904;27;20428;-60
2021/08/16 12:51:27;;;;;;;3.00;2.60;;;30.00;42.20;;;;;;5076261;27;20383;-60
2021/08/16 12:54:08;;;;;;;2.42;2.25;;;30.00;42.10;;;;;;5139756;27;1227405;-58
2021/08/16 12:56:47;;;;;;;4.50;3.25;;;30.10;42.00;;;;;;5081842;28;20417;-60